createdAt,value
2022-09-12T00:00:00.783Z,15.10
2022-09-12T00:00:33.165Z,15.11
2022-09-12T00:01:09.766Z,15.09
2022-09-12T00:01:42.119Z,15.10
2022-09-12T00:02:17.234Z,15.10
2022-09-12T00:02:53.069Z,15.09
2022-09-12T00:03:25.242Z,15.10
2022-09-12T00:04:02.262Z,15.11
2022-09-12T00:04:34.883Z,15.12
2022-09-12T00:05:08.161Z,15.12
2022-09-12T00:05:44.586Z,15.12
2022-09-12T00:06:23.122Z,15.12
2022-09-12T00:06:55.532Z,15.11
2022-09-12T00:07:27.654Z,15.12
2022-09-12T00:08:03.321Z,15.12
2022-09-12T00:08:35.563Z,15.13
2022-09-12T00:09:10.529Z,15.15
2022-09-12T00:09:45.537Z,15.14
2022-09-12T00:10:18.512Z,15.14
2022-09-12T00:10:53.259Z,15.13
2022-09-12T00:11:28.277Z,15.12
2022-09-12T00:12:00.386Z,15.11
2022-09-12T00:12:32.462Z,15.12
2022-09-12T00:13:07.285Z,15.13
2022-09-12T00:13:41.956Z,15.14
2022-09-12T00:14:18.932Z,15.12
2022-09-12T00:14:51.014Z,15.12
2022-09-12T00:15:23.110Z,15.13
2022-09-12T00:15:57.820Z,15.15
2022-09-12T00:16:32.396Z,15.16
2022-09-12T00:17:04.822Z,15.15
2022-09-12T00:17:40.886Z,15.18
2022-09-12T00:18:15.596Z,15.17
2022-09-12T00:18:50.709Z,15.20
2022-09-12T00:19:22.857Z,15.20
2022-09-12T00:19:55.951Z,15.20
2022-09-12T00:20:28.126Z,15.21
2022-09-12T00:21:06.980Z,15.22
2022-09-12T00:21:40.097Z,15.19
2022-09-12T00:22:12.195Z,15.20
2022-09-12T00:22:46.985Z,15.20
2022-09-12T00:23:19.294Z,15.20
2022-09-12T00:23:52.070Z,15.21
2022-09-12T00:24:26.755Z,15.21
2022-09-12T00:24:58.955Z,15.21
2022-09-12T00:25:31.372Z,15.21
2022-09-12T00:26:07.894Z,15.21
2022-09-12T00:26:42.772Z,15.20
2022-09-12T00:27:14.888Z,15.21
2022-09-12T00:27:47.005Z,15.21
2022-09-12T00:28:21.940Z,15.21
2022-09-12T00:28:54.521Z,15.22
2022-09-12T00:29:26.616Z,15.21
2022-09-12T00:30:01.274Z,15.24
2022-09-12T00:30:33.849Z,15.23
2022-09-12T00:31:08.339Z,15.26
2022-09-12T00:31:43.065Z,15.25
2022-09-12T00:32:15.185Z,15.27
2022-09-12T00:32:47.254Z,15.26
2022-09-12T00:33:22.019Z,15.27
2022-09-12T00:33:56.863Z,15.25
2022-09-12T00:34:29.013Z,15.23
2022-09-12T00:35:03.745Z,15.24
2022-09-12T00:35:40.806Z,15.23
2022-09-12T00:36:16.627Z,15.22
2022-09-12T00:36:51.542Z,15.21
2022-09-12T00:37:23.617Z,15.22
2022-09-12T00:37:55.730Z,15.24
2022-09-12T00:38:30.488Z,15.23
2022-09-12T00:39:02.766Z,15.24
2022-09-12T00:39:36.249Z,15.24
2022-09-12T00:40:11.621Z,15.25
2022-09-12T00:40:44.806Z,15.25
2022-09-12T00:41:24.947Z,15.26
2022-09-12T00:41:57.105Z,15.24
2022-09-12T00:42:29.399Z,15.25
2022-09-12T00:43:04.118Z,15.26
2022-09-12T00:43:38.756Z,15.28
2022-09-12T00:44:57.539Z,15.23
2022-09-12T00:45:30.732Z,15.19
2022-09-12T00:46:07.550Z,15.24
2022-09-12T00:46:47.069Z,15.24
2022-09-12T00:47:25.619Z,15.24
2022-09-12T00:48:02.290Z,15.26
2022-09-12T00:48:43.046Z,15.28
2022-09-12T00:49:26.128Z,15.28
2022-09-12T00:50:07.995Z,15.27
2022-09-12T00:50:40.329Z,15.24
2022-09-12T00:51:13.553Z,15.23
2022-09-12T00:51:54.410Z,15.30
2022-09-12T00:52:29.768Z,15.29
2022-09-12T00:53:07.489Z,15.29
2022-09-12T00:53:44.745Z,15.30
2022-09-12T00:54:22.586Z,15.30
2022-09-12T00:54:59.323Z,15.29
2022-09-12T00:55:39.507Z,15.29
2022-09-12T00:56:12.573Z,15.29
2022-09-12T00:56:51.244Z,15.28
2022-09-12T00:57:28.312Z,15.29
2022-09-12T00:58:06.589Z,15.30
2022-09-12T00:58:44.137Z,15.27
2022-09-12T00:59:23.078Z,15.28
2022-09-12T00:59:59.813Z,15.25
2022-09-12T01:00:32.459Z,15.23
2022-09-12T01:01:07.276Z,15.23
2022-09-12T01:01:42.271Z,15.21
2022-09-12T01:02:15.371Z,15.21
2022-09-12T01:02:53.670Z,15.22
2022-09-12T01:03:26.312Z,15.19
2022-09-12T01:03:58.814Z,15.19
2022-09-12T01:04:33.854Z,15.20
2022-09-12T01:05:07.934Z,15.20
2022-09-12T01:05:44.571Z,15.18
2022-09-12T01:06:24.634Z,15.17
2022-09-12T01:06:58.870Z,15.15
2022-09-12T01:07:31.611Z,15.14
2022-09-12T01:08:07.609Z,15.13
2022-09-12T01:08:43.280Z,15.11
2022-09-12T01:09:18.572Z,15.12
2022-09-12T01:09:53.529Z,15.10
2022-09-12T01:10:25.631Z,15.09
2022-09-12T01:10:58.174Z,15.09
2022-09-12T01:11:31.211Z,15.09
2022-09-12T01:12:09.885Z,15.09
2022-09-12T01:12:43.706Z,15.09
2022-09-12T01:13:16.303Z,15.07
2022-09-12T01:13:52.497Z,15.07
2022-09-12T01:14:24.885Z,15.04
2022-09-12T01:14:57.026Z,15.05
2022-09-12T01:15:29.172Z,15.05
2022-09-12T01:16:06.388Z,15.03
2022-09-12T01:16:38.870Z,15.04
2022-09-12T01:17:13.131Z,15.03
2022-09-12T01:18:02.393Z,15.02
2022-09-12T01:18:46.293Z,15.00
2022-09-12T01:19:44.354Z,14.98
2022-09-12T01:20:53.765Z,14.91
2022-09-12T01:21:37.549Z,14.92
2022-09-12T01:22:28.183Z,14.93
2022-09-12T01:23:21.078Z,14.91
2022-09-12T01:24:37.468Z,14.90
2022-09-12T01:25:21.334Z,14.89
2022-09-12T01:26:17.387Z,14.90
2022-09-12T01:27:23.862Z,14.87
2022-09-12T01:28:36.973Z,14.85
2022-09-12T01:29:33.641Z,14.86
2022-09-12T01:30:28.134Z,14.86
2022-09-12T01:31:06.100Z,14.87
2022-09-12T01:31:44.678Z,14.89
2022-09-12T01:32:25.485Z,14.90
2022-09-12T01:33:19.182Z,14.90
2022-09-12T01:34:04.852Z,14.89
2022-09-12T01:34:43.593Z,14.90
2022-09-12T01:35:24.188Z,14.91
2022-09-12T01:36:20.908Z,14.92
2022-09-12T01:37:04.131Z,14.88
2022-09-12T01:37:43.417Z,14.89
2022-09-12T01:38:27.632Z,14.89
2022-09-12T01:39:03.942Z,14.89
2022-09-12T01:39:44.150Z,14.91
2022-09-12T01:40:25.370Z,14.89
2022-09-12T01:41:08.465Z,14.89
2022-09-12T01:41:50.068Z,14.88
2022-09-12T01:42:34.579Z,14.89
2022-09-12T01:43:20.733Z,14.88
2022-09-12T01:44:03.711Z,14.86
2022-09-12T01:44:42.415Z,14.86
2022-09-12T01:45:29.329Z,14.88
2022-09-12T01:46:08.701Z,14.88
2022-09-12T01:46:46.411Z,14.89
2022-09-12T01:47:26.778Z,14.92
2022-09-12T01:48:01.170Z,14.85
2022-09-12T01:48:37.209Z,14.88
2022-09-12T01:49:18.791Z,14.90
2022-09-12T01:49:58.251Z,14.93
2022-09-12T01:50:36.929Z,14.93
2022-09-12T01:51:14.876Z,14.96
2022-09-12T01:51:57.065Z,14.95
2022-09-12T01:52:39.638Z,14.96
2022-09-12T01:53:18.966Z,14.97
2022-09-12T01:53:55.762Z,14.96
2022-09-12T01:54:38.507Z,14.98
2022-09-12T01:55:17.028Z,14.98
2022-09-12T01:55:56.076Z,14.99
2022-09-12T01:56:33.890Z,15.00
2022-09-12T01:57:13.183Z,15.00
2022-09-12T01:57:49.676Z,15.00
2022-09-12T01:58:29.437Z,15.01
2022-09-12T01:59:06.104Z,14.99
2022-09-12T01:59:43.995Z,15.00
2022-09-12T02:00:22.268Z,14.99
2022-09-12T02:01:03.589Z,14.97
2022-09-12T02:01:39.837Z,14.98
2022-09-12T02:02:17.795Z,14.96
2022-09-12T02:02:56.616Z,14.97
2022-09-12T02:03:33.675Z,14.96
2022-09-12T02:04:14.493Z,14.95
2022-09-12T02:04:52.821Z,14.95
2022-09-12T02:05:31.485Z,14.93
2022-09-12T02:06:11.327Z,14.91
2022-09-12T02:06:48.515Z,14.89
2022-09-12T02:07:22.895Z,14.91
2022-09-12T02:08:04.323Z,14.91
2022-09-12T02:08:43.294Z,14.87
2022-09-12T02:09:22.921Z,14.87
2022-09-12T02:10:02.917Z,14.87
2022-09-12T02:10:41.931Z,14.85
2022-09-12T02:11:14.158Z,14.84
2022-09-12T02:11:51.606Z,14.86
2022-09-12T02:12:31.890Z,14.84
2022-09-12T02:13:09.786Z,14.83
2022-09-12T02:13:46.938Z,14.83
2022-09-12T02:14:24.389Z,14.84
2022-09-12T02:15:02.174Z,14.84
2022-09-12T02:15:43.513Z,14.84
2022-09-12T02:16:22.479Z,14.83
2022-09-12T02:16:58.976Z,14.83
2022-09-12T02:17:35.331Z,14.84
2022-09-12T02:18:08.593Z,14.82
2022-09-12T02:18:45.149Z,14.82
2022-09-12T02:19:23.873Z,14.82
2022-09-12T02:19:59.492Z,14.83
2022-09-12T02:20:47.935Z,14.84
2022-09-12T02:21:25.176Z,14.81
2022-09-12T02:22:00.560Z,14.84
2022-09-12T02:22:36.571Z,14.82
2022-09-12T02:23:15.654Z,14.82
2022-09-12T02:23:54.316Z,14.79
2022-09-12T02:24:31.763Z,14.78
2022-09-12T02:25:11.638Z,14.75
2022-09-12T02:25:47.019Z,14.76
2022-09-12T02:26:26.068Z,14.78
2022-09-12T02:27:06.230Z,14.78
2022-09-12T02:27:43.242Z,14.79
2022-09-12T02:28:19.979Z,14.79
2022-09-12T02:28:54.676Z,14.81
2022-09-12T02:29:27.145Z,14.75
2022-09-12T02:30:00.038Z,14.83
2022-09-12T02:30:44.985Z,14.85
2022-09-12T02:31:23.874Z,14.83
2022-09-12T02:31:59.119Z,14.84
2022-09-12T02:32:39.384Z,14.85
2022-09-12T02:33:20.674Z,14.83
2022-09-12T02:34:09.095Z,14.82
2022-09-12T02:34:49.826Z,14.81
2022-09-12T02:35:33.016Z,14.81
2022-09-12T02:36:24.037Z,14.81
2022-09-12T02:37:03.920Z,14.78
2022-09-12T02:37:52.870Z,14.78
2022-09-12T02:38:30.235Z,14.77
2022-09-12T02:39:02.408Z,14.76
2022-09-12T02:39:40.200Z,14.77
2022-09-12T02:40:15.021Z,14.75
2022-09-12T02:40:47.331Z,14.76
2022-09-12T02:41:24.323Z,14.76
2022-09-12T02:42:01.096Z,14.76
2022-09-12T02:42:33.235Z,14.74
2022-09-12T02:43:09.146Z,14.77
2022-09-12T02:43:41.412Z,14.77
2022-09-12T02:44:13.870Z,14.78
2022-09-12T02:44:48.715Z,14.78
2022-09-12T02:45:22.930Z,14.77
2022-09-12T02:45:57.786Z,14.76
2022-09-12T02:46:39.526Z,14.74
2022-09-12T02:47:19.266Z,14.71
2022-09-12T02:47:55.320Z,14.70
2022-09-12T02:48:32.042Z,14.70
2022-09-12T02:49:04.318Z,14.70
2022-09-12T02:49:36.452Z,14.70
2022-09-12T02:50:12.215Z,14.72
2022-09-12T02:50:45.063Z,14.73
2022-09-12T02:51:22.938Z,14.73
2022-09-12T02:51:58.783Z,14.72
2022-09-12T02:52:31.708Z,14.72
2022-09-12T02:53:07.615Z,14.71
2022-09-12T02:53:43.326Z,14.71
2022-09-12T02:54:18.071Z,14.71
2022-09-12T02:54:51.909Z,14.71
2022-09-12T02:55:26.883Z,14.71
2022-09-12T02:55:59.118Z,14.71
2022-09-12T02:56:31.490Z,14.70
2022-09-12T02:57:04.057Z,14.69
2022-09-12T02:57:38.811Z,14.70
2022-09-12T02:58:15.191Z,14.67
2022-09-12T02:58:48.903Z,14.65
2022-09-12T02:59:26.273Z,14.62
2022-09-12T03:00:01.099Z,14.60
2022-09-12T03:00:38.059Z,14.59
2022-09-12T03:01:23.942Z,14.54
2022-09-12T03:02:12.526Z,14.50
2022-09-12T03:03:25.814Z,14.46
2022-09-12T03:04:17.527Z,14.41
2022-09-12T03:05:13.507Z,14.41
2022-09-12T03:05:54.353Z,14.42
2022-09-12T03:06:38.133Z,14.42
2022-09-12T03:07:16.030Z,14.41
2022-09-12T03:08:20.990Z,14.42
2022-09-12T03:09:06.849Z,14.40
2022-09-12T03:09:47.389Z,14.42
2022-09-12T03:10:32.864Z,14.42
2022-09-12T03:11:29.959Z,14.41
2022-09-12T03:12:16.903Z,14.41
2022-09-12T03:12:55.646Z,14.42
2022-09-12T03:13:39.135Z,14.44
2022-09-12T03:14:34.015Z,14.44
2022-09-12T03:15:18.075Z,14.44
2022-09-12T03:16:06.651Z,14.46
2022-09-12T03:16:51.349Z,14.44
2022-09-12T03:17:30.313Z,14.46
2022-09-12T03:18:14.954Z,14.48
2022-09-12T03:18:58.203Z,14.48
2022-09-12T03:19:45.982Z,14.50
2022-09-12T03:20:24.881Z,14.52
2022-09-12T03:21:05.798Z,14.54
2022-09-12T03:21:45.908Z,14.54
2022-09-12T03:22:23.839Z,14.54
2022-09-12T03:23:02.120Z,14.54
2022-09-12T03:23:42.914Z,14.56
2022-09-12T03:24:19.750Z,14.56
2022-09-12T03:25:02.810Z,14.55
2022-09-12T03:25:40.133Z,14.55
2022-09-12T03:26:17.153Z,14.57
2022-09-12T03:26:58.898Z,14.58
2022-09-12T03:27:35.120Z,14.57
2022-09-12T03:28:10.342Z,14.58
2022-09-12T03:28:46.703Z,14.58
2022-09-12T03:29:20.372Z,14.58
2022-09-12T03:29:54.006Z,14.57
2022-09-12T03:30:29.129Z,14.57
2022-09-12T03:31:01.350Z,14.56
2022-09-12T03:31:33.835Z,14.57
2022-09-12T03:32:11.196Z,14.58
2022-09-12T03:32:45.494Z,14.57
2022-09-12T03:33:19.440Z,14.57
2022-09-12T03:33:54.202Z,14.58
2022-09-12T03:34:27.769Z,14.58
2022-09-12T03:34:59.940Z,14.57
2022-09-12T03:35:34.652Z,14.58
2022-09-12T03:36:10.080Z,14.58
2022-09-12T03:36:42.191Z,14.57
2022-09-12T03:37:14.330Z,14.59
2022-09-12T03:37:50.412Z,14.58
2022-09-12T03:38:22.560Z,14.56
2022-09-12T03:38:55.005Z,14.56
2022-09-12T03:39:29.817Z,14.55
2022-09-12T03:40:02.432Z,14.55
2022-09-12T03:40:34.800Z,14.53
2022-09-12T03:41:09.495Z,14.52
2022-09-12T03:41:41.664Z,14.50
2022-09-12T03:42:13.754Z,14.52
2022-09-12T03:42:48.428Z,14.52
2022-09-12T03:43:20.550Z,14.50
2022-09-12T03:43:52.686Z,14.49
2022-09-12T03:44:27.504Z,14.50
2022-09-12T03:44:59.609Z,14.49
2022-09-12T03:45:31.781Z,14.48
2022-09-12T03:46:06.617Z,14.48
2022-09-12T03:46:38.727Z,14.47
2022-09-12T03:47:13.406Z,14.48
2022-09-12T03:47:48.130Z,14.46
2022-09-12T03:48:20.248Z,14.43
2022-09-12T03:48:52.378Z,14.43
2022-09-12T03:49:27.079Z,14.44
2022-09-12T03:49:59.209Z,14.41
2022-09-12T03:50:31.336Z,14.42
2022-09-12T03:51:06.881Z,14.43
2022-09-12T03:51:39.310Z,14.44
2022-09-12T03:52:11.373Z,14.45
2022-09-12T03:52:46.058Z,14.46
2022-09-12T03:53:18.310Z,14.48
2022-09-12T03:53:50.412Z,14.51
2022-09-12T03:54:25.194Z,14.53
2022-09-12T03:54:57.303Z,14.54
2022-09-12T03:55:29.635Z,14.54
2022-09-12T03:56:10.075Z,14.55
2022-09-12T03:56:41.897Z,14.49
2022-09-12T03:57:14.220Z,14.50
2022-09-12T03:57:49.131Z,14.51
2022-09-12T03:58:21.471Z,14.50
2022-09-12T03:58:53.564Z,14.50
2022-09-12T03:59:28.218Z,14.48
2022-09-12T04:00:02.074Z,14.47
2022-09-12T04:00:44.642Z,14.41
2022-09-12T04:01:21.560Z,14.39
2022-09-12T04:01:53.683Z,14.28
2022-09-12T04:02:28.429Z,14.21
2022-09-12T04:03:03.275Z,14.14
2022-09-12T04:03:35.413Z,14.05
2022-09-12T04:04:07.488Z,13.97
2022-09-12T04:04:43.829Z,13.92
2022-09-12T04:05:16.302Z,13.86
2022-09-12T04:05:48.673Z,13.77
2022-09-12T04:06:25.569Z,13.66
2022-09-12T04:06:57.745Z,13.59
2022-09-12T04:07:30.253Z,13.51
2022-09-12T04:08:05.513Z,13.44
2022-09-12T04:08:38.211Z,13.38
2022-09-12T04:09:10.298Z,13.32
2022-09-12T04:09:45.013Z,13.29
2022-09-12T04:10:17.370Z,13.26
2022-09-12T04:10:49.433Z,13.23
2022-09-12T04:11:25.068Z,13.17
2022-09-12T04:11:57.188Z,13.13
2022-09-12T04:12:29.788Z,13.12
2022-09-12T04:13:04.823Z,13.10
2022-09-12T04:13:37.820Z,13.09
2022-09-12T04:14:09.942Z,13.06
2022-09-12T04:14:44.839Z,13.03
2022-09-12T04:15:17.313Z,13.01
2022-09-12T04:15:57.515Z,12.97
2022-09-12T04:16:32.450Z,12.91
2022-09-12T04:17:04.850Z,12.89
2022-09-12T04:17:39.631Z,12.88
2022-09-12T04:18:14.283Z,12.88
2022-09-12T04:18:47.034Z,12.88
2022-09-12T04:19:19.197Z,12.89
2022-09-12T04:19:53.869Z,12.91
2022-09-12T04:20:26.065Z,12.88
2022-09-12T04:20:58.524Z,12.87
2022-09-12T04:21:33.913Z,12.83
2022-09-12T04:22:06.136Z,12.83
2022-09-12T04:22:38.219Z,12.86
2022-09-12T04:23:12.870Z,12.85
2022-09-12T04:23:45.089Z,12.87
2022-09-12T04:24:17.393Z,12.87
2022-09-12T04:24:52.176Z,12.86
2022-09-12T04:25:24.312Z,12.85
2022-09-12T04:25:57.401Z,12.85
2022-09-12T04:26:32.231Z,12.82
2022-09-12T04:27:07.737Z,12.79
2022-09-12T04:27:40.073Z,12.75
2022-09-12T04:28:14.747Z,12.73
2022-09-12T04:28:47.885Z,12.73
2022-09-12T04:29:22.859Z,12.69
2022-09-12T04:29:56.311Z,12.61
2022-09-12T04:30:28.589Z,12.55
2022-09-12T04:31:06.169Z,12.50
2022-09-12T04:31:39.518Z,12.49
2022-09-12T04:32:11.810Z,12.50
2022-09-12T04:32:49.123Z,12.53
2022-09-12T04:33:21.398Z,12.55
2022-09-12T04:33:58.010Z,12.60
2022-09-12T04:34:34.258Z,12.64
2022-09-12T04:35:06.835Z,12.65
2022-09-12T04:35:38.967Z,12.68
2022-09-12T04:36:17.164Z,12.70
2022-09-12T04:36:49.398Z,12.73
2022-09-12T04:37:22.315Z,12.76
2022-09-12T04:37:57.195Z,12.80
2022-09-12T04:38:29.315Z,12.81
2022-09-12T04:39:02.565Z,12.81
2022-09-12T04:39:37.413Z,12.83
2022-09-12T04:40:10.258Z,12.87
2022-09-12T04:40:42.397Z,12.90
2022-09-12T04:41:18.772Z,12.94
2022-09-12T04:41:51.762Z,12.93
2022-09-12T04:42:26.458Z,12.96
2022-09-12T04:42:58.552Z,12.97
2022-09-12T04:43:30.629Z,12.98
2022-09-12T04:44:07.525Z,13.00
2022-09-12T04:44:39.669Z,13.00
2022-09-12T04:45:13.116Z,13.02
2022-09-12T04:45:47.813Z,13.03
2022-09-12T04:46:20.470Z,13.07
2022-09-12T04:46:52.871Z,13.09
2022-09-12T04:47:27.677Z,13.10
2022-09-12T04:48:02.726Z,13.11
2022-09-12T04:48:35.081Z,13.11
2022-09-12T04:49:10.142Z,13.12
2022-09-12T04:49:42.226Z,13.11
2022-09-12T04:50:15.049Z,13.12
2022-09-12T04:50:49.884Z,13.14
2022-09-12T04:51:26.062Z,13.18
2022-09-12T04:51:58.190Z,13.15
2022-09-12T04:52:32.839Z,13.16
2022-09-12T04:53:05.103Z,13.17
2022-09-12T04:53:39.217Z,13.18
2022-09-12T04:54:15.922Z,13.18
2022-09-12T04:54:48.446Z,13.18
2022-09-12T04:55:21.027Z,13.18
2022-09-12T04:55:55.683Z,13.19
2022-09-12T04:56:29.181Z,13.18
2022-09-12T04:57:01.418Z,13.17
2022-09-12T04:57:36.103Z,13.18
2022-09-12T04:58:08.226Z,13.18
2022-09-12T04:58:40.531Z,13.21
2022-09-12T04:59:16.267Z,13.21
2022-09-12T04:59:48.519Z,13.21
2022-09-12T05:00:23.363Z,13.22
2022-09-12T05:00:55.457Z,13.21
2022-09-12T05:01:29.881Z,13.19
2022-09-12T05:02:04.856Z,13.20
2022-09-12T05:02:37.032Z,13.22
2022-09-12T05:03:11.747Z,13.24
2022-09-12T05:03:47.234Z,13.25
2022-09-12T05:04:19.703Z,13.26
2022-09-12T05:04:52.840Z,13.27
2022-09-12T05:05:27.606Z,13.29
2022-09-12T05:06:00.215Z,13.29
2022-09-12T05:06:34.679Z,13.30
2022-09-12T05:07:09.340Z,13.27
2022-09-12T05:07:41.460Z,13.23
2022-09-12T05:08:13.531Z,13.23
2022-09-12T05:08:46.565Z,13.24
2022-09-12T05:09:21.307Z,13.23
2022-09-12T05:09:53.459Z,13.24
2022-09-12T05:10:25.627Z,13.25
2022-09-12T05:11:01.877Z,13.26
2022-09-12T05:12:03.328Z,13.28
2022-09-12T05:12:31.248Z,13.26
2022-09-12T05:13:05.983Z,13.28
2022-09-12T05:13:38.953Z,13.32
2022-09-12T05:14:11.221Z,13.34
2022-09-12T05:14:45.883Z,13.38
2022-09-12T05:15:18.252Z,13.40
2022-09-12T05:15:56.559Z,13.43
2022-09-12T05:16:32.893Z,13.42
2022-09-12T05:17:06.187Z,13.44
2022-09-12T05:17:40.934Z,13.45
2022-09-12T05:18:15.607Z,13.46
2022-09-12T05:18:49.118Z,13.49
2022-09-12T05:19:23.791Z,13.51
2022-09-12T05:19:55.952Z,13.53
2022-09-12T05:20:28.128Z,13.54
2022-09-12T05:21:03.271Z,13.48
2022-09-12T05:21:35.432Z,13.55
2022-09-12T05:22:10.099Z,13.54
2022-09-12T05:22:42.251Z,13.54
2022-09-12T05:23:14.333Z,13.54
2022-09-12T05:23:50.516Z,13.55
2022-09-12T05:24:22.638Z,13.53
2022-09-12T05:24:57.318Z,13.53
2022-09-12T05:25:29.437Z,13.51
2022-09-12T05:26:03.193Z,13.51
2022-09-12T05:26:37.866Z,13.51
2022-09-12T05:27:10.216Z,13.49
2022-09-12T05:27:48.627Z,13.50
2022-09-12T05:28:23.004Z,13.51
2022-09-12T05:28:55.729Z,13.49
2022-09-12T05:29:30.403Z,13.51
2022-09-12T05:30:02.650Z,13.51
2022-09-12T05:30:34.805Z,13.50
2022-09-12T05:31:11.985Z,13.48
2022-09-12T05:31:44.098Z,13.48
2022-09-12T05:32:18.825Z,13.46
2022-09-12T05:32:51.011Z,13.46
2022-09-12T05:33:25.710Z,13.48
2022-09-12T05:33:57.831Z,13.47
2022-09-12T05:34:32.494Z,13.47
2022-09-12T05:35:05.295Z,13.46
2022-09-12T05:35:38.204Z,13.47
2022-09-12T05:36:15.139Z,13.46
2022-09-12T05:36:47.275Z,13.46
2022-09-12T05:37:23.235Z,13.45
2022-09-12T05:37:55.320Z,13.47
2022-09-12T05:38:29.136Z,13.50
2022-09-12T05:39:04.713Z,13.50
2022-09-12T05:39:36.785Z,13.50
2022-09-12T05:40:10.256Z,13.51
2022-09-12T05:40:45.003Z,13.52
2022-09-12T05:41:23.002Z,13.54
2022-09-12T05:41:56.876Z,13.53
2022-09-12T05:42:33.118Z,13.54
2022-09-12T05:43:05.198Z,13.53
2022-09-12T05:43:38.923Z,13.53
2022-09-12T05:44:15.503Z,13.52
2022-09-12T05:44:47.635Z,13.51
2022-09-12T05:45:19.717Z,13.50
2022-09-12T05:45:54.487Z,13.49
2022-09-12T05:46:28.916Z,13.50
2022-09-12T05:47:03.601Z,13.49
2022-09-12T05:47:35.742Z,13.48
2022-09-12T05:48:07.922Z,13.47
2022-09-12T05:48:47.130Z,13.46
2022-09-12T05:49:19.315Z,13.44
2022-09-12T05:49:52.630Z,13.44
2022-09-12T05:50:27.382Z,13.44
2022-09-12T05:51:01.646Z,13.42
2022-09-12T05:51:35.861Z,13.41
2022-09-12T05:52:10.583Z,13.41
2022-09-12T05:52:42.746Z,13.42
2022-09-12T05:53:14.874Z,13.43
2022-09-12T05:53:52.789Z,13.41
2022-09-12T05:54:28.317Z,13.40
2022-09-12T05:55:03.046Z,13.37
2022-09-12T05:55:37.778Z,13.38
2022-09-12T05:56:11.669Z,13.38
2022-09-12T05:56:47.248Z,13.38
2022-09-12T05:57:19.405Z,13.36
2022-09-12T05:57:54.328Z,13.37
2022-09-12T05:58:26.546Z,13.38
2022-09-12T05:59:01.106Z,13.40
2022-09-12T05:59:35.788Z,13.41
2022-09-12T06:00:09.905Z,13.43
2022-09-12T06:00:44.083Z,13.46
2022-09-12T06:01:20.492Z,13.49
2022-09-12T06:01:52.914Z,13.53
2022-09-12T06:02:27.865Z,13.57
2022-09-12T06:02:59.997Z,13.58
2022-09-12T06:03:32.144Z,13.62
2022-09-12T06:04:07.415Z,13.65
2022-09-12T06:04:43.779Z,13.67
2022-09-12T06:05:16.076Z,13.70
2022-09-12T06:05:50.672Z,13.73
2022-09-12T06:06:27.856Z,13.78
2022-09-12T06:06:59.950Z,13.78
2022-09-12T06:07:35.840Z,13.80
2022-09-12T06:08:07.906Z,13.80
2022-09-12T06:08:41.299Z,13.84
2022-09-12T06:09:17.265Z,13.84
2022-09-12T06:09:49.351Z,13.88
2022-09-12T06:10:23.163Z,13.83
2022-09-12T06:11:02.558Z,13.82
2022-09-12T06:11:37.410Z,13.81
2022-09-12T06:12:12.119Z,13.78
2022-09-12T06:12:44.190Z,13.77
2022-09-12T06:13:16.343Z,13.78
2022-09-12T06:13:51.227Z,13.78
2022-09-12T06:14:23.376Z,13.77
2022-09-12T06:14:55.461Z,13.77
2022-09-12T06:15:30.127Z,13.77
2022-09-12T06:16:06.355Z,13.76
2022-09-12T06:16:39.340Z,13.80
2022-09-12T06:17:14.409Z,13.78
2022-09-12T06:17:51.355Z,13.79
2022-09-12T06:18:23.689Z,13.79
2022-09-12T06:18:59.648Z,13.81
2022-09-12T06:19:34.546Z,13.82
2022-09-12T06:20:10.603Z,13.84
2022-09-12T06:20:42.705Z,13.84
2022-09-12T06:21:14.855Z,13.81
2022-09-12T06:21:50.337Z,13.79
2022-09-12T06:22:22.563Z,13.76
2022-09-12T06:22:54.670Z,13.75
2022-09-12T06:23:29.695Z,13.75
2022-09-12T06:24:02.568Z,13.74
2022-09-12T06:24:37.311Z,13.74
2022-09-12T06:25:09.496Z,13.75
2022-09-12T06:25:47.240Z,13.75
2022-09-12T06:26:23.647Z,13.75
2022-09-12T06:26:56.028Z,13.76
2022-09-12T06:27:28.114Z,13.77
2022-09-12T06:28:02.955Z,13.74
2022-09-12T06:28:37.027Z,13.76
2022-09-12T06:29:11.569Z,13.74
2022-09-12T06:29:46.282Z,13.72
2022-09-12T06:30:21.247Z,13.71
2022-09-12T06:31:02.188Z,13.73
2022-09-12T06:31:39.122Z,13.72
2022-09-12T06:32:11.767Z,13.75
2022-09-12T06:32:46.418Z,13.78
2022-09-12T06:33:18.802Z,13.78
2022-09-12T06:33:52.499Z,13.80
2022-09-12T06:34:27.627Z,13.82
2022-09-12T06:35:02.594Z,13.85
2022-09-12T06:35:36.537Z,13.87
2022-09-12T06:36:14.025Z,13.90
2022-09-12T06:36:48.013Z,13.90
2022-09-12T06:37:22.693Z,13.90
2022-09-12T06:37:55.031Z,13.91
2022-09-12T06:38:27.222Z,13.92
2022-09-12T06:39:04.434Z,13.94
2022-09-12T06:39:38.572Z,13.96
2022-09-12T06:40:12.544Z,14.00
2022-09-12T06:40:47.430Z,14.04
2022-09-12T06:41:19.550Z,14.05
2022-09-12T06:41:52.430Z,14.08
2022-09-12T06:42:38.652Z,14.12
2022-09-12T06:43:11.780Z,14.17
2022-09-12T06:43:43.929Z,14.22
2022-09-12T06:44:20.542Z,14.24
2022-09-12T06:44:52.678Z,14.30
2022-09-12T06:45:26.164Z,14.33
2022-09-12T06:46:00.977Z,14.35
2022-09-12T06:46:33.513Z,14.36
2022-09-12T06:47:08.601Z,14.36
2022-09-12T06:47:40.670Z,14.33
2022-09-12T06:48:12.753Z,14.42
2022-09-12T06:48:47.479Z,14.45
2022-09-12T06:49:19.607Z,14.49
2022-09-12T06:49:51.682Z,14.55
2022-09-12T06:50:29.111Z,14.60
2022-09-12T06:51:02.457Z,14.66
2022-09-12T06:51:36.362Z,14.69
2022-09-12T06:52:11.115Z,14.70
2022-09-12T06:52:44.525Z,14.70
2022-09-12T06:53:16.629Z,14.71
2022-09-12T06:53:52.443Z,14.69
2022-09-12T06:54:26.532Z,14.68
2022-09-12T06:55:01.186Z,14.68
2022-09-12T06:55:33.972Z,14.67
2022-09-12T06:56:09.383Z,14.65
2022-09-12T06:56:44.375Z,14.66
2022-09-12T06:57:16.517Z,14.65
2022-09-12T06:57:48.578Z,14.64
2022-09-12T06:58:23.235Z,14.63
2022-09-12T06:58:57.292Z,14.60
2022-09-12T06:59:32.105Z,14.58
2022-09-12T07:00:05.736Z,14.54
2022-09-12T07:00:37.847Z,14.53
2022-09-12T07:01:15.535Z,14.52
2022-09-12T07:01:47.964Z,14.50
2022-09-12T07:02:20.186Z,14.47
2022-09-12T07:02:58.253Z,14.45
2022-09-12T07:03:31.108Z,14.44
2022-09-12T07:04:06.897Z,14.44
2022-09-12T07:04:39.001Z,14.45
2022-09-12T07:05:11.581Z,14.44
2022-09-12T07:05:49.276Z,14.46
2022-09-12T07:06:24.253Z,14.46
2022-09-12T07:06:56.483Z,14.45
2022-09-12T07:07:34.395Z,14.48
2022-09-12T07:08:06.661Z,14.49
2022-09-12T07:08:39.743Z,14.50
2022-09-12T07:09:16.557Z,14.52
2022-09-12T07:09:49.548Z,14.53
2022-09-12T07:10:22.658Z,14.52
2022-09-12T07:10:58.927Z,14.54
2022-09-12T07:11:33.598Z,14.55
2022-09-12T07:12:09.156Z,14.56
2022-09-12T07:12:41.248Z,14.55
2022-09-12T07:13:14.060Z,14.57
2022-09-12T07:13:50.754Z,14.57
2022-09-12T07:14:23.258Z,14.57
2022-09-12T07:14:55.370Z,14.57
2022-09-12T07:15:30.316Z,14.57
2022-09-12T07:16:02.790Z,14.55
2022-09-12T07:16:38.344Z,14.54
2022-09-12T07:17:10.530Z,14.49
2022-09-12T07:17:42.680Z,14.44
2022-09-12T07:18:17.561Z,14.43
2022-09-12T07:18:51.847Z,14.42
2022-09-12T07:19:27.224Z,14.42
2022-09-12T07:19:59.353Z,14.42
2022-09-12T07:20:33.227Z,14.41
2022-09-12T07:21:11.418Z,14.42
2022-09-12T07:21:46.089Z,14.41
2022-09-12T07:22:18.204Z,14.43
2022-09-12T07:22:51.036Z,14.42
2022-09-12T07:23:25.742Z,14.41
2022-09-12T07:23:58.320Z,14.39
2022-09-12T07:24:33.005Z,14.40
2022-09-12T07:25:06.041Z,14.40
2022-09-12T07:25:38.128Z,14.42
2022-09-12T07:26:14.226Z,14.43
2022-09-12T07:26:46.322Z,14.46
2022-09-12T07:27:18.471Z,14.49
2022-09-12T07:27:53.188Z,14.52
2022-09-12T07:28:26.171Z,14.56
2022-09-12T07:29:13.153Z,14.59
2022-09-12T07:29:54.075Z,14.59
2022-09-12T07:30:26.727Z,14.63
2022-09-12T07:31:05.445Z,14.67
2022-09-12T07:31:40.146Z,14.71
2022-09-12T07:32:12.260Z,14.75
2022-09-12T07:32:46.946Z,14.76
2022-09-12T07:33:19.039Z,14.79
2022-09-12T07:33:54.657Z,14.81
2022-09-12T07:34:29.771Z,14.82
2022-09-12T07:35:01.863Z,14.82
2022-09-12T07:35:34.470Z,14.83
2022-09-12T07:36:14.894Z,14.86
2022-09-12T07:36:46.750Z,14.79
2022-09-12T07:37:21.464Z,14.83
2022-09-12T07:37:53.591Z,14.87
2022-09-12T07:38:25.718Z,14.91
2022-09-12T07:39:01.729Z,14.93
2022-09-12T07:39:33.817Z,14.97
2022-09-12T07:40:07.104Z,15.00
2022-09-12T07:40:41.816Z,15.03
2022-09-12T07:41:14.996Z,15.05
2022-09-12T07:41:47.176Z,15.08
2022-09-12T07:42:21.886Z,15.11